Time;durP1;ratioP1;P1;durP2;ratioP2;P2;SDS_P1;SDS_P2;PMS_P1;PMS_P2;Temp;Humidity;BMP_temperature;BMP_pressure;BME280_temperature;BME280_humidity;BME280_pressure;Samples;Min_cycle;Max_cycle;Signal;HPM_P1;HPM_P2
2021/12/16 00:01:46;;;;;;;14.55;10.85;;;9.00;99.90;;;;;;5008781;28;20229;-55
2021/12/16 00:34:01;;;;;;;12.40;9.70;;;9.20;99.90;;;;;;5003048;28;20201;-54
2021/12/16 00:36:34;;;;;;;13.10;10.15;;;9.20;99.90;;;;;;5001732;28;20209;-54
2021/12/16 00:39:14;;;;;;;11.00;8.95;;;9.20;99.90;;;;;;5003674;28;20374;-55
2021/12/16 00:41:45;;;;;;;9.75;7.93;;;8.90;99.90;;;;;;5002853;28;20268;-56
2021/12/16 00:54:45;;;;;;;15.18;11.25;;;9.10;99.90;;;;;;5022333;28;20235;-56
2021/12/16 00:57:15;;;;;;;10.63;8.60;;;8.90;99.90;;;;;;5021790;28;20429;-52
2021/12/16 00:59:46;;;;;;;10.43;8.80;;;9.00;99.90;;;;;;5022022;28;20205;-53
2021/12/16 01:35:00;;;;;;;12.77;9.73;;;8.40;99.90;;;;;;5001340;28;20256;-56
2021/12/16 01:45:48;;;;;;;10.35;8.52;;;8.40;99.90;;;;;;5001223;28;20197;-54
2021/12/16 01:50:53;;;;;;;11.05;9.00;;;8.60;99.90;;;;;;5001769;28;20363;-55
2021/12/16 01:56:01;;;;;;;13.38;10.15;;;8.60;99.90;;;;;;5001295;28;20235;-53
2021/12/16 01:58:32;;;;;;;11.73;9.45;;;8.50;99.90;;;;;;5000843;28;20427;-53
2021/12/16 02:01:15;;;;;;;13.32;9.80;;;8.60;99.90;;;;;;5001005;28;20501;-53
2021/12/16 02:03:52;;;;;;;10.98;9.73;;;8.60;99.90;;;;;;5001118;28;20235;-54
2021/12/16 02:08:55;;;;;;;11.77;9.65;;;8.50;99.90;;;;;;5023099;28;20200;-56
2021/12/16 02:36:36;;;;;;;8.77;7.85;;;8.30;99.90;;;;;;5012741;28;20460;-53
2021/12/16 02:39:13;;;;;;;11.40;9.15;;;8.30;99.90;;;;;;5022481;28;20201;-52
2021/12/16 02:41:44;;;;;;;11.35;9.25;;;8.40;99.90;;;;;;5022340;28;20286;-54
2021/12/16 02:49:29;;;;;;;12.80;8.77;;;8.40;99.90;;;;;;5023316;28;20235;-54
2021/12/16 02:51:57;;;;;;;9.75;8.32;;;8.50;99.90;;;;;;5022967;28;20447;-55
2021/12/16 02:54:26;;;;;;;12.27;8.50;;;8.50;99.90;;;;;;5022607;28;20555;-51
2021/12/16 02:56:55;;;;;;;13.38;9.15;;;8.70;99.90;;;;;;5021562;28;20267;-53
2021/12/16 02:59:27;;;;;;;10.85;8.88;;;8.70;99.90;;;;;;5025096;28;20209;-52
2021/12/16 03:02:01;;;;;;;8.45;7.65;;;8.70;99.90;;;;;;5026578;28;20220;-53
2021/12/16 03:04:30;;;;;;;12.15;8.23;;;8.70;99.90;;;;;;5024818;28;20188;-53
2021/12/16 03:06:59;;;;;;;10.68;8.40;;;8.60;99.90;;;;;;5024744;28;20196;-54
2021/12/16 03:15:05;;;;;;;10.77;9.20;;;8.50;99.90;;;;;;5023860;28;20258;-53
2021/12/16 03:20:08;;;;;;;10.88;8.38;;;8.40;99.90;;;;;;5023349;28;20385;-55
2021/12/16 03:38:19;;;;;;;13.45;9.18;;;8.40;99.90;;;;;;5014763;28;20201;-57
2021/12/16 03:40:47;;;;;;;9.85;8.43;;;8.50;99.90;;;;;;5003612;28;20202;-56
2021/12/16 03:43:17;;;;;;;10.45;9.27;;;8.40;99.90;;;;;;5003285;28;20405;-56
2021/12/16 03:48:52;;;;;;;9.90;8.05;;;8.40;99.90;;;;;;5006162;28;20204;-52
2021/12/16 03:51:29;;;;;;;13.73;8.45;;;8.30;99.90;;;;;;5003788;28;20377;-53
2021/12/16 03:54:06;;;;;;;11.50;7.97;;;8.20;99.90;;;;;;5003531;28;20512;-52
2021/12/16 03:56:33;;;;;;;9.25;8.10;;;8.20;99.90;;;;;;5003233;28;20264;-54
2021/12/16 03:59:01;;;;;;;12.45;8.70;;;8.30;99.90;;;;;;5003310;28;20396;-53
2021/12/16 04:01:30;;;;;;;10.85;7.25;;;8.20;99.90;;;;;;5003669;28;20454;-54
2021/12/16 04:03:58;;;;;;;10.85;7.57;;;8.20;99.90;;;;;;5003868;28;20217;-52
2021/12/16 04:06:27;;;;;;;11.43;9.35;;;8.20;99.90;;;;;;5003818;28;20201;-54
2021/12/16 04:08:56;;;;;;;13.80;9.43;;;8.20;99.90;;;;;;5004107;28;20208;-56
2021/12/16 04:11:39;;;;;;;9.63;8.05;;;8.20;99.90;;;;;;5002039;28;20444;-55
2021/12/16 04:14:09;;;;;;;11.52;8.50;;;8.20;99.90;;;;;;5002137;28;20264;-56
2021/12/16 04:16:49;;;;;;;10.75;7.25;;;8.10;99.90;;;;;;5002341;28;20516;-53
2021/12/16 04:19:22;;;;;;;17.48;10.20;;;8.00;99.90;;;;;;5003121;28;20273;-53
2021/12/16 04:21:59;;;;;;;16.35;10.68;;;8.10;99.90;;;;;;5002562;28;20249;-56
2021/12/16 04:24:28;;;;;;;14.70;8.57;;;8.10;99.90;;;;;;5002880;28;20201;-56
2021/12/16 04:26:57;;;;;;;9.93;8.32;;;8.10;99.90;;;;;;5002888;28;20408;-56
2021/12/16 04:29:29;;;;;;;13.38;10.10;;;8.10;99.90;;;;;;5002767;28;20186;-57
2021/12/16 04:31:57;;;;;;;13.32;10.18;;;8.20;99.90;;;;;;5002245;28;20233;-58
2021/12/16 04:34:25;;;;;;;16.58;9.75;;;8.20;99.90;;;;;;5002557;28;20213;-54
2021/12/16 04:36:54;;;;;;;14.23;11.05;;;8.10;99.90;;;;;;5002092;28;20212;-55
2021/12/16 04:39:25;;;;;;;9.43;8.43;;;8.00;99.90;;;;;;5002791;28;20202;-55
2021/12/16 04:41:54;;;;;;;12.02;8.90;;;8.00;99.90;;;;;;5002963;28;20225;-53
2021/12/16 04:44:23;;;;;;;12.38;8.65;;;8.00;99.90;;;;;;5002752;28;20201;-55
2021/12/16 04:46:51;;;;;;;16.67;10.43;;;7.90;99.90;;;;;;5002505;28;20206;-52
2021/12/16 04:49:19;;;;;;;17.80;11.50;;;7.80;99.90;;;;;;5002026;28;20313;-55
2021/12/16 04:51:51;;;;;;;16.10;10.80;;;7.70;99.90;;;;;;5002069;28;20275;-52
2021/12/16 04:54:23;;;;;;;15.95;10.65;;;7.80;99.90;;;;;;5002281;28;20252;-55
2021/12/16 04:56:53;;;;;;;16.55;10.60;;;7.90;99.90;;;;;;5002371;28;20467;-56
2021/12/16 04:59:21;;;;;;;13.57;11.32;;;8.00;99.90;;;;;;5002033;28;20256;-56
2021/12/16 05:01:52;;;;;;;17.25;11.32;;;8.00;99.90;;;;;;5014501;28;20217;-59
2021/12/16 05:04:23;;;;;;;13.75;10.90;;;7.90;99.90;;;;;;5014457;28;20223;-56
2021/12/16 05:06:51;;;;;;;17.35;11.90;;;7.90;99.90;;;;;;5012551;28;20558;-54
2021/12/16 05:12:12;;;;;;;16.95;11.65;;;7.90;99.90;;;;;;5010600;28;20372;-54
2021/12/16 05:14:39;;;;;;;16.85;13.43;;;7.90;99.90;;;;;;5013444;28;20231;-55
2021/12/16 05:17:12;;;;;;;16.85;12.38;;;7.80;99.90;;;;;;5020333;28;20209;-51
2021/12/16 05:19:48;;;;;;;19.50;12.18;;;7.80;99.90;;;;;;5021567;28;20255;-53
2021/12/16 05:25:04;;;;;;;14.77;11.43;;;7.80;99.90;;;;;;5024910;28;20242;-55
2021/12/16 05:27:31;;;;;;;20.52;14.90;;;7.90;99.90;;;;;;5025208;28;20329;-56
2021/12/16 05:29:58;;;;;;;15.07;12.07;;;7.90;99.90;;;;;;5021864;28;20200;-55
2021/12/16 05:32:25;;;;;;;16.17;11.35;;;8.00;99.90;;;;;;5020896;28;20244;-53
2021/12/16 05:34:52;;;;;;;25.05;15.30;;;8.00;99.90;;;;;;5021599;28;20207;-54
2021/12/16 05:37:19;;;;;;;19.00;12.27;;;7.90;99.90;;;;;;5020923;28;20201;-52
2021/12/16 05:39:47;;;;;;;17.63;12.50;;;7.90;99.90;;;;;;5020793;28;20392;-52
2021/12/16 05:42:14;;;;;;;16.77;12.73;;;7.90;99.90;;;;;;5020941;28;20221;-53
2021/12/16 05:44:42;;;;;;;22.25;14.25;;;8.20;99.90;;;;;;5026471;28;20197;-57
2021/12/16 05:47:12;;;;;;;23.02;14.50;;;8.20;99.90;;;;;;5024038;28;20192;-56
2021/12/16 05:49:39;;;;;;;26.23;15.27;;;8.20;99.90;;;;;;5021934;28;20200;-55
2021/12/16 05:52:06;;;;;;;20.42;11.50;;;8.20;99.90;;;;;;5021496;28;20244;-56
2021/12/16 05:54:33;;;;;;;24.50;14.75;;;8.10;99.90;;;;;;5012879;28;20516;-57
2021/12/16 05:57:01;;;;;;;21.52;11.82;;;8.10;99.90;;;;;;5020995;28;20220;-53
2021/12/16 05:59:28;;;;;;;18.80;13.35;;;8.20;99.90;;;;;;5009869;28;20202;-53
2021/12/16 06:01:55;;;;;;;19.17;12.00;;;8.30;99.90;;;;;;4998909;28;20249;-58
2021/12/16 06:04:23;;;;;;;18.83;14.23;;;8.30;99.90;;;;;;4986382;28;20261;-54
2021/12/16 06:06:50;;;;;;;18.08;13.18;;;8.40;99.90;;;;;;4992341;28;20205;-53
2021/12/16 06:09:17;;;;;;;21.27;15.52;;;8.40;99.90;;;;;;4998705;28;20198;-54
2021/12/16 06:11:45;;;;;;;21.65;13.20;;;8.40;99.90;;;;;;5000761;28;20297;-54
2021/12/16 06:22:35;;;;;;;22.00;13.43;;;8.50;99.90;;;;;;5000765;28;20267;-55
2021/12/16 06:27:53;;;;;;;17.80;12.68;;;8.50;99.90;;;;;;4981192;28;20445;-57
2021/12/16 06:30:28;;;;;;;25.27;15.18;;;8.50;99.90;;;;;;4984953;28;20197;-57
2021/12/16 06:32:56;;;;;;;22.25;14.88;;;8.40;99.90;;;;;;4988969;28;20405;-55
2021/12/16 06:35:24;;;;;;;25.58;15.05;;;8.40;99.90;;;;;;4997746;28;20201;-55
2021/12/16 06:37:52;;;;;;;20.15;13.90;;;8.30;99.90;;;;;;5001157;28;20510;-54
2021/12/16 06:40:19;;;;;;;23.95;15.13;;;8.30;99.90;;;;;;5000418;28;20201;-53
2021/12/16 06:42:49;;;;;;;23.02;15.45;;;8.20;99.90;;;;;;5000599;28;20397;-54
2021/12/16 06:45:23;;;;;;;23.13;17.17;;;8.40;99.90;;;;;;5000810;28;20231;-54
2021/12/16 06:48:00;;;;;;;20.08;13.40;;;8.40;99.90;;;;;;5000433;28;20237;-54
2021/12/16 06:50:52;;;;;;;23.35;14.45;;;8.40;99.90;;;;;;5000505;28;20197;-55
2021/12/16 06:53:29;;;;;;;23.98;15.57;;;8.20;99.90;;;;;;4999798;28;20236;-53
2021/12/16 06:56:12;;;;;;;22.75;16.05;;;8.10;99.90;;;;;;4999922;28;20201;-54
2021/12/16 06:58:50;;;;;;;26.10;16.50;;;8.00;99.90;;;;;;4988525;28;20210;-55
2021/12/16 07:01:37;;;;;;;23.52;15.48;;;8.10;99.90;;;;;;4981190;28;20203;-55
2021/12/16 07:04:12;;;;;;;24.65;17.15;;;8.10;99.90;;;;;;4990412;28;20222;-55
2021/12/16 07:06:41;;;;;;;32.53;17.13;;;8.10;99.90;;;;;;4982617;28;20198;-55
2021/12/16 07:09:13;;;;;;;20.73;15.60;;;8.20;99.90;;;;;;4980784;28;20207;-51
2021/12/16 07:11:47;;;;;;;26.50;15.40;;;8.10;99.90;;;;;;4981370;28;20225;-53
2021/12/16 07:14:17;;;;;;;28.63;16.00;;;8.20;99.90;;;;;;4981351;28;20210;-55
2021/12/16 07:16:47;;;;;;;26.50;17.42;;;8.20;99.90;;;;;;4980221;28;20209;-55
2021/12/16 07:19:15;;;;;;;28.83;17.38;;;8.10;99.90;;;;;;4981227;28;20384;-54
2021/12/16 07:21:44;;;;;;;27.55;16.85;;;8.10;99.90;;;;;;4980734;28;20343;-52
2021/12/16 07:24:15;;;;;;;28.85;19.08;;;8.00;99.90;;;;;;4980776;28;20294;-56
2021/12/16 07:26:44;;;;;;;28.58;18.30;;;8.00;99.90;;;;;;4988409;28;20483;-56
2021/12/16 07:29:12;;;;;;;26.60;16.65;;;8.00;99.90;;;;;;4980783;28;20202;-56
2021/12/16 07:31:39;;;;;;;28.02;17.00;;;8.10;99.90;;;;;;4993668;28;20221;-57
2021/12/16 07:34:10;;;;;;;32.58;20.13;;;7.90;99.90;;;;;;4999796;28;20201;-56
2021/12/16 07:36:40;;;;;;;29.77;18.08;;;7.80;99.90;;;;;;4999951;28;20435;-53
2021/12/16 07:39:11;;;;;;;28.95;18.13;;;7.80;99.90;;;;;;4999863;28;20256;-52
2021/12/16 07:41:40;;;;;;;27.20;16.75;;;7.80;99.90;;;;;;5000063;28;20234;-52
2021/12/16 07:44:11;;;;;;;30.83;18.00;;;7.70;99.90;;;;;;4999706;28;20244;-54
2021/12/16 07:46:43;;;;;;;31.20;19.92;;;7.70;99.90;;;;;;5003023;28;20232;-57
2021/12/16 07:49:14;;;;;;;27.30;17.60;;;7.70;99.90;;;;;;5003535;28;20571;-56
2021/12/16 07:51:42;;;;;;;30.40;17.92;;;7.70;99.90;;;;;;5002778;28;20229;-55
2021/12/16 07:54:11;;;;;;;35.95;21.25;;;7.80;99.90;;;;;;5003802;28;20234;-57
2021/12/16 07:56:38;;;;;;;37.95;21.33;;;7.80;99.90;;;;;;5002729;28;20201;-57
2021/12/16 07:59:07;;;;;;;37.47;20.98;;;7.80;99.90;;;;;;5003306;28;20201;-52
2021/12/16 08:01:40;;;;;;;32.05;19.52;;;7.80;99.90;;;;;;5002859;28;20287;-55
2021/12/16 08:04:10;;;;;;;33.17;20.95;;;7.80;99.90;;;;;;5003043;28;20248;-57
2021/12/16 08:06:41;;;;;;;37.00;18.95;;;7.80;99.90;;;;;;5002939;28;20198;-56
2021/12/16 08:09:09;;;;;;;35.53;20.70;;;7.90;99.90;;;;;;5002836;28;20385;-57
2021/12/16 08:11:40;;;;;;;35.05;19.92;;;8.00;99.90;;;;;;5002899;28;20584;-55
2021/12/16 08:14:08;;;;;;;32.72;17.80;;;8.10;99.90;;;;;;5002706;28;20210;-54
2021/12/16 08:16:36;;;;;;;33.78;18.15;;;8.10;99.90;;;;;;5003086;28;20216;-54
2021/12/16 08:19:06;;;;;;;33.97;19.70;;;8.20;99.90;;;;;;5002771;28;20205;-51
2021/12/16 08:21:34;;;;;;;27.73;19.10;;;8.20;99.90;;;;;;5002737;28;20264;-54
2021/12/16 08:24:04;;;;;;;28.05;16.65;;;8.30;99.90;;;;;;5001695;28;20574;-54
2021/12/16 08:26:32;;;;;;;28.58;16.73;;;8.20;99.90;;;;;;4992222;28;20247;-54
2021/12/16 08:28:59;;;;;;;24.08;15.40;;;8.20;99.90;;;;;;5002419;28;20224;-53
2021/12/16 08:31:27;;;;;;;25.00;15.90;;;8.20;99.90;;;;;;4990124;28;20217;-54
2021/12/16 08:33:56;;;;;;;25.08;15.55;;;8.20;99.90;;;;;;4983709;28;20257;-54
2021/12/16 08:36:24;;;;;;;25.17;15.10;;;8.10;99.90;;;;;;4982962;28;20203;-56
2021/12/16 08:38:51;;;;;;;25.60;15.55;;;8.20;99.90;;;;;;4983595;28;20241;-54
2021/12/16 08:41:23;;;;;;;24.02;13.73;;;8.20;99.90;;;;;;4989571;28;20198;-53
2021/12/16 08:43:50;;;;;;;25.45;17.15;;;8.10;99.90;;;;;;4988859;28;20221;-55
2021/12/16 08:46:21;;;;;;;26.58;14.75;;;8.10;99.90;;;;;;4983236;28;20410;-56
2021/12/16 08:48:48;;;;;;;22.27;13.73;;;8.10;99.90;;;;;;4982302;28;20384;-57
2021/12/16 08:51:24;;;;;;;23.13;15.27;;;8.10;99.90;;;;;;4982992;28;20262;-56
2021/12/16 08:53:52;;;;;;;27.92;14.65;;;8.10;99.90;;;;;;4982607;28;20209;-55
2021/12/16 08:56:21;;;;;;;26.92;15.32;;;8.10;99.90;;;;;;4981586;28;20206;-57
2021/12/16 08:58:48;;;;;;;18.48;12.35;;;8.00;99.90;;;;;;4982745;28;20385;-56
2021/12/16 09:01:20;;;;;;;21.15;13.77;;;8.00;99.90;;;;;;4982508;28;20209;-57
2021/12/16 09:03:48;;;;;;;20.90;13.40;;;8.00;99.90;;;;;;4982891;28;20222;-53
2021/12/16 09:06:17;;;;;;;19.73;12.70;;;8.10;99.90;;;;;;4982852;28;20213;-55
2021/12/16 09:08:44;;;;;;;19.75;11.90;;;8.00;99.90;;;;;;4998954;28;20216;-56
2021/12/16 09:11:18;;;;;;;18.77;11.07;;;8.00;99.90;;;;;;5002091;28;20240;-55
2021/12/16 09:13:48;;;;;;;23.23;15.43;;;8.00;99.90;;;;;;5001435;28;20209;-53
2021/12/16 09:16:19;;;;;;;25.10;13.95;;;8.00;99.90;;;;;;5001952;28;20271;-56
2021/12/16 09:18:47;;;;;;;20.60;13.15;;;7.90;99.90;;;;;;5001629;28;20381;-54
2021/12/16 09:21:19;;;;;;;21.05;12.25;;;7.90;99.90;;;;;;5001693;28;20215;-55
2021/12/16 09:23:48;;;;;;;20.95;13.07;;;7.90;99.90;;;;;;5001330;28;20501;-56
2021/12/16 09:26:18;;;;;;;20.38;12.00;;;7.90;99.90;;;;;;4993436;28;20572;-55
2021/12/16 09:28:45;;;;;;;18.60;12.15;;;7.90;99.90;;;;;;4981962;28;20198;-54
2021/12/16 09:31:16;;;;;;;20.85;11.68;;;7.80;99.90;;;;;;4992310;28;20429;-52
2021/12/16 09:33:49;;;;;;;19.23;13.35;;;7.80;99.90;;;;;;5001390;28;20524;-55
2021/12/16 09:36:21;;;;;;;20.60;11.73;;;7.90;99.90;;;;;;5001119;28;20208;-55
2021/12/16 09:38:49;;;;;;;21.30;11.57;;;7.90;99.90;;;;;;5001934;28;20264;-53
2021/12/16 09:41:18;;;;;;;20.00;11.80;;;7.90;99.90;;;;;;5001063;28;20253;-56
2021/12/16 09:43:49;;;;;;;22.05;13.90;;;7.90;99.90;;;;;;5001370;28;20464;-54
2021/12/16 09:46:20;;;;;;;18.35;12.82;;;8.00;99.90;;;;;;5000313;28;20209;-52
2021/12/16 09:48:48;;;;;;;20.67;11.80;;;8.00;99.90;;;;;;5001154;28;20509;-55
2021/12/16 09:51:23;;;;;;;16.42;11.48;;;8.10;99.90;;;;;;5001251;28;20232;-55
2021/12/16 09:53:55;;;;;;;18.25;11.35;;;8.10;99.90;;;;;;4999899;28;20388;-56
2021/12/16 09:56:25;;;;;;;16.70;11.38;;;8.10;99.90;;;;;;5000110;28;20528;-53
2021/12/16 09:58:55;;;;;;;21.00;11.25;;;8.10;99.90;;;;;;5000539;28;20217;-56
2021/12/16 10:01:24;;;;;;;19.95;12.73;;;8.00;99.90;;;;;;5000774;28;20201;-57
2021/12/16 10:04:00;;;;;;;21.48;14.35;;;8.10;99.90;;;;;;5001527;28;20222;-54
2021/12/16 10:06:30;;;;;;;17.23;12.18;;;8.20;99.90;;;;;;5000778;28;20432;-58
2021/12/16 10:09:00;;;;;;;16.48;10.43;;;8.20;99.90;;;;;;5000112;28;20225;-57
2021/12/16 10:11:28;;;;;;;14.30;10.15;;;8.20;99.90;;;;;;5000709;28;20244;-53
2021/12/16 10:14:19;;;;;;;13.73;10.43;;;8.20;99.90;;;;;;5000746;28;20201;-54
2021/12/16 10:19:35;;;;;;;11.90;7.65;;;8.10;99.90;;;;;;5007620;28;20201;-56
2021/12/16 10:22:19;;;;;;;9.85;6.80;;;8.00;99.90;;;;;;5006126;28;20221;-58
2021/12/16 10:24:48;;;;;;;9.38;6.82;;;8.00;99.90;;;;;;4991103;28;20221;-53
2021/12/16 10:27:19;;;;;;;9.30;8.35;;;8.00;99.90;;;;;;4991462;28;20451;-55
2021/12/16 10:29:55;;;;;;;15.40;8.70;;;8.00;99.90;;;;;;5000549;28;20563;-56
2021/12/16 10:32:38;;;;;;;14.13;8.10;;;8.10;99.90;;;;;;4981144;28;20483;-53
2021/12/16 10:35:18;;;;;;;9.57;7.55;;;8.10;99.90;;;;;;4979928;28;20253;-52
2021/12/16 10:37:54;;;;;;;10.45;8.07;;;8.10;99.90;;;;;;4980123;28;20209;-52
2021/12/16 10:40:36;;;;;;;8.63;7.35;;;8.10;99.90;;;;;;4980618;28;20260;-55
2021/12/16 10:43:15;;;;;;;10.18;7.55;;;8.20;99.90;;;;;;4981347;28;20261;-52
2021/12/16 10:45:52;;;;;;;9.15;8.25;;;8.20;99.90;;;;;;4980684;28;20273;-56
2021/12/16 10:48:26;;;;;;;9.50;8.50;;;8.20;99.90;;;;;;4981387;28;20209;-56
2021/12/16 10:51:02;;;;;;;13.25;9.25;;;8.10;99.90;;;;;;4990005;28;20201;-53
2021/12/16 10:54:09;;;;;;;11.85;8.38;;;8.20;99.90;;;;;;4999670;28;20260;-52
2021/12/16 10:56:47;;;;;;;10.43;9.05;;;8.30;99.90;;;;;;4999595;28;20252;-55
2021/12/16 10:59:17;;;;;;;10.05;7.78;;;8.30;99.90;;;;;;5000388;28;20217;-56
2021/12/16 11:01:46;;;;;;;10.60;9.00;;;8.30;99.90;;;;;;4999712;28;20218;-56
2021/12/16 11:04:21;;;;;;;11.50;9.38;;;8.30;99.90;;;;;;5000576;28;20221;-55
2021/12/16 11:06:52;;;;;;;10.63;8.52;;;8.20;99.90;;;;;;5000195;28;20271;-54
2021/12/16 11:09:23;;;;;;;14.45;9.30;;;8.30;99.90;;;;;;4999881;28;20197;-55
2021/12/16 11:12:09;;;;;;;10.88;7.65;;;8.30;99.90;;;;;;4999971;28;20217;-56
2021/12/16 11:14:40;;;;;;;9.80;6.85;;;8.30;99.90;;;;;;4999155;28;20263;-54
2021/12/16 11:17:10;;;;;;;16.70;9.43;;;8.30;99.90;;;;;;5000987;28;20316;-55
2021/12/16 11:20:01;;;;;;;10.30;8.60;;;8.30;99.90;;;;;;5000545;28;20280;-55
2021/12/16 11:22:32;;;;;;;10.70;8.15;;;8.20;99.90;;;;;;4995742;28;20217;-55
2021/12/16 11:25:19;;;;;;;7.80;7.10;;;8.20;99.90;;;;;;5003060;28;20434;-57
2021/12/16 11:27:52;;;;;;;14.90;8.90;;;8.20;99.90;;;;;;4997043;28;20592;-52
2021/12/16 11:30:42;;;;;;;8.73;6.60;;;8.10;99.90;;;;;;5001844;28;20639;-55
2021/12/16 11:33:27;;;;;;;12.48;8.25;;;8.10;99.90;;;;;;4987066;28;20285;-53
2021/12/16 11:36:02;;;;;;;10.05;8.18;;;8.10;99.90;;;;;;4984793;28;20237;-53
2021/12/16 11:38:34;;;;;;;13.52;9.27;;;8.10;99.90;;;;;;4984208;28;20284;-53
2021/12/16 11:41:01;;;;;;;12.88;8.30;;;8.10;99.90;;;;;;4984692;28;20563;-53
2021/12/16 11:43:35;;;;;;;12.45;9.27;;;8.10;99.90;;;;;;4993474;28;20229;-52
2021/12/16 11:46:07;;;;;;;11.77;8.90;;;8.00;99.90;;;;;;4984629;28;20222;-52
2021/12/16 11:48:38;;;;;;;13.40;9.18;;;8.10;99.90;;;;;;4983940;28;20707;-51
2021/12/16 11:51:10;;;;;;;12.18;9.45;;;8.10;99.90;;;;;;4984722;28;20374;-52
2021/12/16 11:53:47;;;;;;;11.57;8.65;;;8.20;99.90;;;;;;4984209;28;20290;-55
2021/12/16 11:56:15;;;;;;;14.85;11.15;;;8.20;99.90;;;;;;4984452;28;20522;-54
2021/12/16 11:58:44;;;;;;;13.30;9.02;;;8.30;99.90;;;;;;4988294;28;20207;-54
2021/12/16 12:01:21;;;;;;;11.38;8.43;;;8.30;99.90;;;;;;4985179;28;20497;-56
2021/12/16 12:03:50;;;;;;;10.63;9.13;;;8.30;99.90;;;;;;4984196;28;20277;-51
2021/12/16 12:06:23;;;;;;;14.63;10.02;;;8.30;99.90;;;;;;4983154;28;20629;-53
2021/12/16 12:08:51;;;;;;;16.13;8.88;;;8.30;99.90;;;;;;4984043;28;20249;-53
2021/12/16 12:11:26;;;;;;;9.48;7.63;;;8.40;99.90;;;;;;4983673;28;20504;-55
2021/12/16 12:14:05;;;;;;;13.35;9.50;;;8.40;99.90;;;;;;4984991;28;20485;-52
2021/12/16 12:16:37;;;;;;;15.27;9.60;;;8.30;99.90;;;;;;4985639;28;20202;-53
2021/12/16 12:19:22;;;;;;;12.30;8.63;;;8.30;99.90;;;;;;4984257;28;20269;-53
2021/12/16 12:21:54;;;;;;;14.02;9.77;;;8.20;99.90;;;;;;4984811;28;20229;-54
2021/12/16 12:24:33;;;;;;;11.57;9.18;;;8.20;99.90;;;;;;4990291;28;20222;-55
2021/12/16 12:27:03;;;;;;;14.23;10.05;;;8.20;99.90;;;;;;5001066;28;20185;-55
2021/12/16 12:29:53;;;;;;;17.38;13.20;;;8.20;99.90;;;;;;5010268;28;20551;-54
2021/12/16 12:32:25;;;;;;;15.00;9.20;;;8.20;99.90;;;;;;4983600;28;20476;-53
2021/12/16 12:35:04;;;;;;;16.70;10.15;;;8.30;99.90;;;;;;4983520;28;20202;-53
2021/12/16 12:37:34;;;;;;;14.02;9.43;;;8.20;99.90;;;;;;4983652;28;20209;-52
2021/12/16 12:40:18;;;;;;;13.43;10.10;;;8.20;99.90;;;;;;4989854;28;20209;-58
2021/12/16 12:42:50;;;;;;;14.05;9.40;;;8.20;99.90;;;;;;4994977;28;20252;-53
2021/12/16 12:45:23;;;;;;;16.17;9.00;;;8.20;99.90;;;;;;5000660;28;20226;-58
2021/12/16 12:47:53;;;;;;;14.90;8.63;;;8.20;99.90;;;;;;4987477;28;20261;-58
2021/12/16 12:50:31;;;;;;;11.45;9.32;;;8.10;99.90;;;;;;4992436;28;20198;-57
2021/12/16 12:53:16;;;;;;;15.10;9.65;;;8.20;99.90;;;;;;4984343;28;20218;-52
2021/12/16 12:55:46;;;;;;;12.13;8.05;;;8.20;99.90;;;;;;4982870;28;20214;-55
2021/12/16 12:58:21;;;;;;;11.10;8.30;;;8.10;99.90;;;;;;4984126;28;20198;-55
2021/12/16 13:00:53;;;;;;;13.52;9.68;;;8.00;99.90;;;;;;4998401;28;20225;-55
2021/12/16 13:03:31;;;;;;;15.52;9.57;;;8.00;99.90;;;;;;4983138;28;20289;-56
2021/12/16 13:06:00;;;;;;;11.80;8.52;;;8.00;99.90;;;;;;4982608;28;20276;-53
2021/12/16 13:08:35;;;;;;;13.18;8.65;;;8.00;99.90;;;;;;4984640;28;20202;-57
2021/12/16 13:11:04;;;;;;;14.38;9.98;;;8.10;99.90;;;;;;4982204;28;20567;-56
2021/12/16 13:13:38;;;;;;;14.10;9.70;;;8.10;99.90;;;;;;4982753;28;20270;-52
2021/12/16 13:27:42;;;;;;;16.63;11.40;;;8.10;99.90;;;;;;4992979;28;20198;-54
2021/12/16 13:30:21;;;;;;;13.48;8.48;;;8.10;99.90;;;;;;5001706;28;20193;-55
2021/12/16 13:33:42;;;;;;;13.35;8.77;;;8.10;99.90;;;;;;4990012;28;20269;-56
2021/12/16 13:36:18;;;;;;;11.85;8.90;;;8.10;99.90;;;;;;4982059;28;20202;-56
2021/12/16 13:38:49;;;;;;;12.70;9.85;;;8.10;99.90;;;;;;4986318;28;20201;-53
2021/12/16 13:41:29;;;;;;;16.70;9.32;;;8.00;99.90;;;;;;4981678;28;20249;-55
2021/12/16 13:44:03;;;;;;;10.93;8.30;;;8.00;99.90;;;;;;4981571;28;20533;-55
2021/12/16 13:46:57;;;;;;;14.48;8.00;;;8.00;99.90;;;;;;4981355;28;20193;-56
2021/12/16 13:59:07;;;;;;;14.77;8.73;;;8.20;99.90;;;;;;4981843;28;20512;-56
2021/12/16 14:01:32;;;;;;;10.73;8.77;;;8.00;99.90;;;;;;4990379;28;20252;-55
2021/12/16 14:06:52;;;;;;;12.40;8.55;;;8.00;99.90;;;;;;4981250;28;20256;-56
2021/12/16 14:09:25;;;;;;;11.85;7.85;;;8.00;99.90;;;;;;4981841;28;20206;-55
2021/12/16 14:14:54;;;;;;;10.80;8.40;;;8.00;99.90;;;;;;4992832;28;20506;-51
2021/12/16 14:17:55;;;;;;;12.20;8.25;;;8.00;99.90;;;;;;4996459;28;20202;-55
2021/12/16 14:23:46;;;;;;;13.57;10.40;;;8.00;99.90;;;;;;4986410;28;20262;-54
2021/12/16 14:38:04;;;;;;;12.57;9.15;;;8.00;99.90;;;;;;4998296;28;20805;-58
2021/12/16 14:40:49;;;;;;;10.30;8.55;;;7.90;99.90;;;;;;4983854;28;20205;-59
2021/12/16 14:43:35;;;;;;;15.50;11.07;;;7.90;99.90;;;;;;4986982;28;20259;-58
2021/12/16 14:46:07;;;;;;;11.55;9.23;;;8.00;99.90;;;;;;4985835;28;20288;-59
2021/12/16 14:48:35;;;;;;;16.40;11.43;;;8.00;99.90;;;;;;4983641;28;20282;-59
2021/12/16 14:51:07;;;;;;;17.02;11.18;;;7.90;99.90;;;;;;4984395;28;20328;-57
2021/12/16 14:53:50;;;;;;;17.35;11.05;;;7.90;99.90;;;;;;4981038;28;20289;-57
2021/12/16 14:56:26;;;;;;;14.18;10.07;;;7.90;99.90;;;;;;4985677;28;20513;-57
2021/12/16 14:59:06;;;;;;;12.93;7.95;;;7.90;99.90;;;;;;4984975;28;20206;-60
2021/12/16 15:01:38;;;;;;;10.23;8.25;;;7.90;99.90;;;;;;4984784;28;20225;-57
2021/12/16 15:04:08;;;;;;;9.52;6.80;;;7.90;99.90;;;;;;4985130;28;20202;-56
2021/12/16 15:06:44;;;;;;;12.60;7.78;;;7.90;99.90;;;;;;4986052;28;20190;-56
2021/12/16 15:09:27;;;;;;;11.43;8.68;;;7.90;99.90;;;;;;4992192;28;20212;-56
2021/12/16 15:12:19;;;;;;;12.25;8.27;;;7.90;99.90;;;;;;4991458;28;20217;-56
2021/12/16 15:40:12;;;;;;;12.63;9.38;;;7.80;99.90;;;;;;4984745;28;20198;-53
2021/12/16 15:45:17;;;;;;;12.20;8.15;;;7.80;99.90;;;;;;4984830;28;20301;-57
2021/12/16 15:47:51;;;;;;;9.25;7.80;;;7.70;99.90;;;;;;4982558;28;20268;-56
2021/12/16 15:50:32;;;;;;;11.13;6.75;;;7.60;99.90;;;;;;4984077;28;20198;-58
2021/12/16 15:53:01;;;;;;;15.00;8.07;;;7.50;99.90;;;;;;4983640;28;20245;-59
2021/12/16 15:55:39;;;;;;;10.98;6.85;;;7.40;99.90;;;;;;4983982;28;20210;-57
2021/12/16 15:58:24;;;;;;;10.38;6.47;;;7.30;99.90;;;;;;4983709;28;20202;-57
2021/12/16 16:00:57;;;;;;;7.40;5.13;;;7.20;99.90;;;;;;4983969;28;20266;-56
2021/12/16 16:03:26;;;;;;;5.65;5.05;;;7.10;99.90;;;;;;4983252;28;20223;-54
2021/12/16 16:06:05;;;;;;;10.07;5.60;;;6.90;99.90;;;;;;4987385;28;20256;-55
2021/12/16 16:08:41;;;;;;;9.35;5.25;;;6.90;99.90;;;;;;5000690;28;20202;-56
2021/12/16 16:11:12;;;;;;;10.23;7.38;;;6.90;99.90;;;;;;4983282;28;20221;-54
2021/12/16 16:13:47;;;;;;;7.25;5.15;;;6.80;99.90;;;;;;4983438;28;20225;-55
2021/12/16 16:16:18;;;;;;;8.90;6.05;;;6.70;99.90;;;;;;4982833;28;20239;-56
2021/12/16 16:18:55;;;;;;;7.18;6.03;;;6.70;99.90;;;;;;4983777;28;20201;-55
2021/12/16 16:21:30;;;;;;;7.63;5.93;;;6.70;99.90;;;;;;4983413;28;20567;-54
2021/12/16 16:24:03;;;;;;;6.88;4.97;;;6.80;99.90;;;;;;4984522;28;20212;-57
2021/12/16 16:26:35;;;;;;;11.07;7.05;;;6.90;99.90;;;;;;4994551;28;20225;-54
2021/12/16 16:29:11;;;;;;;8.45;6.90;;;7.00;99.90;;;;;;4999669;28;20440;-56
2021/12/16 16:31:40;;;;;;;11.20;6.30;;;7.00;99.90;;;;;;5017820;28;20232;-56
2021/12/16 16:34:23;;;;;;;9.00;5.78;;;7.00;99.90;;;;;;5003170;28;20204;-54
2021/12/16 16:36:55;;;;;;;10.25;6.82;;;6.90;99.90;;;;;;4994326;28;20216;-54
2021/12/16 16:39:28;;;;;;;13.02;7.78;;;6.90;99.90;;;;;;4997490;28;20221;-55
2021/12/16 16:42:04;;;;;;;11.13;7.75;;;6.90;99.90;;;;;;4996080;28;20491;-55
2021/12/16 16:44:35;;;;;;;10.55;7.95;;;6.90;99.90;;;;;;5006437;28;20210;-56
2021/12/16 16:47:17;;;;;;;18.30;8.85;;;6.90;99.90;;;;;;4989715;28;20246;-58
2021/12/16 16:49:53;;;;;;;8.65;6.55;;;6.80;99.90;;;;;;5003333;28;20193;-59
2021/12/16 16:52:28;;;;;;;12.32;7.85;;;6.70;99.90;;;;;;4992758;28;20233;-58
2021/12/16 16:55:10;;;;;;;11.07;7.30;;;6.60;99.90;;;;;;4988494;28;20194;-56
2021/12/16 16:57:45;;;;;;;9.02;7.13;;;6.60;99.90;;;;;;4989081;28;20205;-57
2021/12/16 17:00:25;;;;;;;9.77;7.35;;;6.70;99.90;;;;;;4984396;28;20206;-58
2021/12/16 17:02:59;;;;;;;14.02;7.30;;;6.90;99.90;;;;;;4983104;28;20229;-55
2021/12/16 17:05:34;;;;;;;7.95;5.50;;;6.90;99.90;;;;;;4982742;28;20277;-58
2021/12/16 17:08:10;;;;;;;8.52;6.15;;;7.00;99.90;;;;;;4983481;28;20205;-55